createdAt,value
2022-11-14T00:00:56.615Z,9.41
2022-11-14T00:01:56.651Z,9.40
2022-11-14T00:02:56.553Z,9.36
2022-11-14T00:03:56.447Z,9.40
2022-11-14T00:04:56.406Z,9.39
2022-11-14T00:05:56.338Z,9.37
2022-11-14T00:06:56.350Z,9.36
2022-11-14T00:07:56.230Z,9.36
2022-11-14T00:08:56.172Z,9.43
2022-11-14T00:09:56.131Z,9.36
2022-11-14T00:10:56.062Z,9.32
2022-11-14T00:11:56.019Z,9.28
2022-11-14T00:12:55.950Z,9.32
2022-11-14T00:13:55.898Z,9.44
2022-11-14T00:14:55.844Z,9.39
2022-11-14T00:15:55.792Z,9.36
2022-11-14T00:16:55.742Z,9.44
2022-11-14T00:18:05.264Z,9.41
2022-11-14T00:18:55.616Z,9.37
2022-11-14T00:19:55.580Z,9.43
2022-11-14T00:20:55.509Z,9.43
2022-11-14T00:21:55.461Z,9.40
2022-11-14T00:22:55.399Z,9.47
2022-11-14T00:23:55.342Z,9.34
2022-11-14T00:24:55.299Z,9.40
2022-11-14T00:25:55.232Z,9.44
2022-11-14T00:26:55.176Z,9.54
2022-11-14T00:27:55.120Z,9.47
2022-11-14T00:28:55.079Z,9.54
2022-11-14T00:29:55.022Z,9.48
2022-11-14T00:30:54.970Z,9.56
2022-11-14T00:31:54.897Z,9.50
2022-11-14T00:32:54.842Z,9.50
2022-11-14T00:33:54.879Z,9.48
2022-11-14T00:34:54.744Z,9.43
2022-11-14T00:35:54.695Z,9.46
2022-11-14T00:36:54.621Z,9.46
2022-11-14T00:37:54.565Z,9.48
2022-11-14T00:38:54.518Z,9.55
2022-11-14T00:39:54.454Z,9.48
2022-11-14T00:40:54.413Z,9.56
2022-11-14T00:41:54.357Z,9.51
2022-11-14T00:42:54.290Z,9.54
2022-11-14T00:43:54.235Z,9.54
2022-11-14T00:44:54.195Z,9.54
2022-11-14T00:45:54.121Z,9.59
2022-11-14T00:46:54.069Z,9.56
2022-11-14T00:47:54.024Z,9.62
2022-11-14T00:48:53.956Z,9.50
2022-11-14T00:49:53.994Z,9.61
2022-11-14T00:50:53.858Z,9.55
2022-11-14T00:51:54.676Z,9.55
2022-11-14T00:52:53.734Z,9.56
2022-11-14T00:53:53.678Z,9.61
2022-11-14T00:54:53.635Z,9.73
2022-11-14T00:55:53.578Z,9.69
2022-11-14T00:56:53.518Z,9.66
2022-11-14T00:57:53.471Z,9.69
2022-11-14T00:58:53.401Z,9.66
2022-11-14T00:59:53.346Z,9.69
2022-11-14T01:00:53.330Z,9.61
2022-11-14T01:01:57.654Z,9.68
2022-11-14T01:02:53.188Z,9.66
2022-11-14T01:03:53.138Z,9.58
2022-11-14T01:04:53.083Z,9.72
2022-11-14T01:05:53.119Z,9.62
2022-11-14T01:06:52.957Z,9.62
2022-11-14T01:07:52.915Z,9.64
2022-11-14T01:08:52.918Z,9.66
2022-11-14T01:09:52.794Z,9.68
2022-11-14T01:10:52.746Z,9.68
2022-11-14T01:11:52.683Z,9.62
2022-11-14T01:12:52.625Z,9.64
2022-11-14T01:13:52.578Z,9.61
2022-11-14T01:14:52.513Z,9.72
2022-11-14T01:15:52.503Z,9.55
2022-11-14T01:16:52.409Z,9.66
2022-11-14T01:17:52.352Z,9.73
2022-11-14T01:18:52.293Z,9.66
2022-11-14T01:19:52.235Z,9.73
2022-11-14T01:20:52.208Z,9.66
2022-11-14T01:21:52.219Z,9.69
2022-11-14T01:22:52.072Z,9.72
2022-11-14T01:23:52.015Z,9.68
2022-11-14T01:24:51.961Z,9.72
2022-11-14T01:25:51.921Z,9.73
2022-11-14T01:26:51.851Z,9.72
2022-11-14T01:27:51.796Z,9.79
2022-11-14T01:28:51.738Z,9.82
2022-11-14T01:29:51.686Z,9.83
2022-11-14T01:30:51.640Z,9.74
2022-11-14T01:31:51.573Z,9.77
2022-11-14T01:32:51.517Z,9.82
2022-11-14T01:33:51.466Z,9.83
2022-11-14T01:34:51.408Z,9.77
2022-11-14T01:35:51.366Z,9.83
2022-11-14T01:36:51.301Z,9.82
2022-11-14T01:37:51.335Z,9.79
2022-11-14T01:38:51.188Z,9.74
2022-11-14T01:39:51.144Z,9.82
2022-11-14T01:40:51.077Z,9.77
2022-11-14T01:41:51.021Z,9.80
2022-11-14T01:42:50.980Z,9.84
2022-11-14T01:43:50.910Z,9.86
2022-11-14T01:44:50.855Z,9.86
2022-11-14T01:45:50.798Z,9.83
2022-11-14T01:46:50.758Z,9.86
2022-11-14T01:47:51.704Z,9.73
2022-11-14T01:48:50.635Z,9.84
2022-11-14T01:49:50.579Z,9.83
2022-11-14T01:50:50.522Z,9.77
2022-11-14T01:51:50.468Z,9.66
2022-11-14T01:52:50.427Z,9.62
2022-11-14T01:53:50.451Z,9.68
2022-11-14T01:54:50.312Z,9.69
2022-11-14T01:55:50.247Z,9.73
2022-11-14T01:56:50.196Z,9.72
2022-11-14T01:57:50.153Z,9.66
2022-11-14T01:58:50.080Z,9.62
2022-11-14T01:59:50.026Z,9.59
2022-11-14T02:00:49.969Z,9.66
2022-11-14T02:01:49.980Z,9.66
2022-11-14T02:02:49.874Z,9.66
2022-11-14T02:03:49.801Z,9.59
2022-11-14T02:04:49.748Z,9.58
2022-11-14T02:05:49.694Z,9.55
2022-11-14T02:06:49.700Z,9.66
2022-11-14T02:07:49.594Z,9.66
2022-11-14T02:08:49.526Z,9.64
2022-11-14T02:09:49.563Z,9.66
2022-11-14T02:10:49.418Z,9.64
2022-11-14T02:11:49.375Z,9.74
2022-11-14T02:12:49.320Z,9.64
2022-11-14T02:13:49.251Z,9.65
2022-11-14T02:14:49.198Z,9.68
2022-11-14T02:15:49.140Z,9.66
2022-11-14T02:17:07.716Z,9.68
2022-11-14T02:17:49.049Z,9.66
2022-11-14T02:18:48.974Z,9.68
2022-11-14T02:19:49.005Z,9.69
2022-11-14T02:20:48.862Z,9.61
2022-11-14T02:21:48.808Z,9.55
2022-11-14T02:22:48.753Z,9.54
2022-11-14T02:23:48.696Z,9.51
2022-11-14T02:24:48.658Z,9.43
2022-11-14T02:25:48.680Z,9.48
2022-11-14T02:26:48.530Z,9.39
2022-11-14T02:27:48.472Z,9.46
2022-11-14T02:28:48.416Z,9.44
2022-11-14T02:29:48.365Z,9.44
2022-11-14T02:30:48.328Z,9.44
2022-11-14T02:31:48.263Z,9.36
2022-11-14T02:33:10.151Z,9.40
2022-11-14T02:33:48.139Z,9.40
2022-11-14T02:34:48.088Z,9.41
2022-11-14T02:35:48.046Z,9.29
2022-11-14T02:36:47.974Z,9.31
2022-11-14T02:37:47.936Z,9.26
2022-11-14T02:38:47.863Z,9.25
2022-11-14T02:39:47.806Z,9.25
2022-11-14T02:40:47.773Z,9.25
2022-11-14T02:41:47.787Z,9.26
2022-11-14T02:42:47.656Z,9.26
2022-11-14T02:43:47.587Z,9.28
2022-11-14T02:44:47.531Z,9.29
2022-11-14T02:45:47.496Z,9.26
2022-11-14T02:46:47.419Z,9.25
2022-11-14T02:47:47.362Z,9.23
2022-11-14T02:48:47.323Z,9.19
2022-11-14T02:49:47.265Z,9.22
2022-11-14T02:50:47.210Z,9.25
2022-11-14T02:51:47.143Z,9.28
2022-11-14T02:52:47.090Z,9.19
2022-11-14T02:53:47.031Z,9.22
2022-11-14T02:54:51.633Z,9.22
2022-11-14T02:55:46.934Z,9.14
2022-11-14T02:56:46.863Z,9.10
2022-11-14T02:57:46.913Z,9.16
2022-11-14T02:58:46.753Z,9.11
2022-11-14T02:59:46.712Z,9.16
2022-11-14T03:01:13.476Z,9.19
2022-11-14T03:01:46.685Z,9.19
2022-11-14T03:02:46.530Z,9.25
2022-11-14T03:03:46.490Z,9.31
2022-11-14T03:04:46.420Z,9.25
2022-11-14T03:05:46.365Z,9.26
2022-11-14T03:06:46.376Z,9.29
2022-11-14T03:07:46.251Z,9.40
2022-11-14T03:08:46.211Z,9.34
2022-11-14T03:09:46.139Z,9.43
2022-11-14T03:10:46.088Z,9.37
2022-11-14T03:11:46.026Z,9.37
2022-11-14T03:12:45.975Z,9.36
2022-11-14T03:13:46.023Z,9.31
2022-11-14T03:14:45.874Z,9.34
2022-11-14T03:15:45.805Z,9.28
2022-11-14T03:16:45.751Z,9.26
2022-11-14T03:17:45.693Z,9.26
2022-11-14T03:18:45.637Z,9.19
2022-11-14T03:19:45.595Z,9.23
2022-11-14T03:20:45.527Z,9.23
2022-11-14T03:21:45.470Z,9.31
2022-11-14T03:22:45.430Z,9.22
2022-11-14T03:23:45.359Z,9.18
2022-11-14T03:24:45.304Z,9.21
2022-11-14T03:25:45.260Z,9.21
2022-11-14T03:26:45.215Z,9.22
2022-11-14T03:27:45.134Z,9.21
2022-11-14T03:28:45.080Z,9.19
2022-11-14T03:29:45.125Z,9.21
2022-11-14T03:30:44.966Z,9.16
2022-11-14T03:31:44.925Z,9.16
2022-11-14T03:32:44.856Z,9.10
2022-11-14T03:33:44.803Z,9.08
2022-11-14T03:34:44.758Z,9.06
2022-11-14T03:35:44.688Z,8.97
2022-11-14T03:36:44.652Z,9.00
2022-11-14T03:37:44.574Z,9.00
2022-11-14T03:38:44.526Z,8.94
2022-11-14T03:39:44.470Z,8.92
2022-11-14T03:40:44.424Z,9.03
2022-11-14T03:41:44.374Z,8.89
2022-11-14T03:42:44.299Z,8.99
2022-11-14T03:43:44.241Z,9.00
2022-11-14T03:44:44.192Z,9.00
2022-11-14T03:45:44.223Z,8.94
2022-11-14T03:46:44.074Z,8.92
2022-11-14T03:47:44.034Z,9.00
2022-11-14T03:48:43.962Z,8.88
2022-11-14T03:49:43.912Z,8.88
2022-11-14T03:50:43.851Z,8.87
2022-11-14T03:51:43.816Z,8.91
2022-11-14T03:52:43.738Z,8.87
2022-11-14T03:53:43.684Z,8.95
2022-11-14T03:54:43.625Z,8.95
2022-11-14T03:55:43.569Z,8.92
2022-11-14T03:56:43.512Z,8.91
2022-11-14T03:57:43.473Z,8.81
2022-11-14T03:58:43.401Z,8.81
2022-11-14T03:59:43.345Z,8.76
2022-11-14T04:00:43.336Z,8.79
2022-11-14T04:01:43.325Z,8.85
2022-11-14T04:02:43.192Z,8.73
2022-11-14T04:03:43.124Z,8.73
2022-11-14T04:04:43.067Z,8.67
2022-11-14T04:05:43.012Z,8.73
2022-11-14T04:06:42.970Z,8.73
2022-11-14T04:07:42.946Z,8.69
2022-11-14T04:08:42.840Z,8.79
2022-11-14T04:09:42.787Z,8.78
2022-11-14T04:10:42.727Z,8.79
2022-11-14T04:11:42.672Z,8.79
2022-11-14T04:12:42.619Z,8.81
2022-11-14T04:13:42.576Z,8.81
2022-11-14T04:14:42.504Z,8.71
2022-11-14T04:15:42.448Z,8.73
2022-11-14T04:16:42.393Z,8.71
2022-11-14T04:17:42.534Z,8.69
2022-11-14T04:18:42.278Z,8.67
2022-11-14T04:19:42.224Z,8.69
2022-11-14T04:20:42.175Z,8.67
2022-11-14T04:21:42.114Z,8.69
2022-11-14T04:22:42.054Z,8.69
2022-11-14T04:23:42.016Z,8.67
2022-11-14T04:24:41.959Z,8.70
2022-11-14T04:25:41.889Z,8.69
2022-11-14T04:26:41.830Z,8.66
2022-11-14T04:27:41.777Z,8.70
2022-11-14T04:28:41.738Z,8.74
2022-11-14T04:29:41.669Z,8.70
2022-11-14T04:30:41.607Z,8.66
2022-11-14T04:31:41.555Z,8.61
2022-11-14T04:32:41.491Z,8.67
2022-11-14T04:33:41.547Z,8.66
2022-11-14T04:34:41.395Z,8.69
2022-11-14T04:35:41.326Z,8.69
2022-11-14T04:36:41.268Z,8.66
2022-11-14T04:37:41.213Z,8.53
2022-11-14T04:38:41.170Z,8.63
2022-11-14T04:39:41.101Z,8.52
2022-11-14T04:40:41.044Z,8.70
2022-11-14T04:41:40.987Z,8.61
2022-11-14T04:42:40.940Z,8.63
2022-11-14T04:43:40.890Z,8.51
2022-11-14T04:44:40.868Z,8.52
2022-11-14T04:45:40.761Z,8.48
2022-11-14T04:46:40.706Z,8.49
2022-11-14T04:47:40.650Z,8.51
2022-11-14T04:48:40.608Z,8.46
2022-11-14T04:49:40.630Z,8.49
2022-11-14T04:50:40.478Z,8.51
2022-11-14T04:51:40.423Z,8.49
2022-11-14T04:52:40.387Z,8.53
2022-11-14T04:53:40.325Z,8.48
2022-11-14T04:54:40.254Z,8.63
2022-11-14T04:55:40.202Z,8.64
2022-11-14T04:56:40.143Z,8.67
2022-11-14T04:57:40.107Z,8.55
2022-11-14T04:58:40.032Z,8.51
2022-11-14T04:59:39.973Z,8.51
2022-11-14T05:00:39.918Z,8.46
2022-11-14T05:01:39.912Z,8.46
2022-11-14T05:02:39.820Z,8.44
2022-11-14T05:03:39.746Z,8.38
2022-11-14T05:04:39.710Z,8.33
2022-11-14T05:05:42.263Z,8.37
2022-11-14T05:06:39.580Z,8.31
2022-11-14T05:07:39.524Z,8.34
2022-11-14T05:08:39.491Z,8.36
2022-11-14T05:09:39.413Z,8.31
2022-11-14T05:10:39.355Z,8.33
2022-11-14T05:11:39.299Z,8.33
2022-11-14T05:12:39.243Z,8.33
2022-11-14T05:13:39.187Z,8.27
2022-11-14T05:14:39.150Z,8.34
2022-11-14T05:15:39.072Z,8.19
2022-11-14T05:16:39.019Z,8.33
2022-11-14T05:17:38.961Z,8.28
2022-11-14T05:18:42.873Z,8.36
2022-11-14T05:19:38.864Z,8.31
2022-11-14T05:20:38.808Z,8.33
2022-11-14T05:21:38.735Z,8.30
2022-11-14T05:22:38.678Z,8.38
2022-11-14T05:23:38.621Z,8.30
2022-11-14T05:24:38.564Z,8.38
2022-11-14T05:25:38.525Z,8.37
2022-11-14T05:26:38.466Z,8.36
2022-11-14T05:27:38.399Z,8.31
2022-11-14T05:28:38.342Z,8.26
2022-11-14T05:29:38.287Z,8.23
2022-11-14T05:30:38.243Z,8.23
2022-11-14T05:31:38.177Z,8.23
2022-11-14T05:32:38.129Z,8.15
2022-11-14T05:33:38.058Z,8.24
2022-11-14T05:34:38.001Z,8.26
2022-11-14T05:35:37.958Z,8.24
2022-11-14T05:36:37.901Z,8.19
2022-11-14T05:37:37.848Z,8.31
2022-11-14T05:38:37.779Z,8.30
2022-11-14T05:39:37.720Z,8.18
2022-11-14T05:40:37.666Z,8.19
2022-11-14T05:41:37.621Z,8.30
2022-11-14T05:42:37.551Z,8.16
2022-11-14T05:43:37.497Z,8.33
2022-11-14T05:44:37.437Z,8.31
2022-11-14T05:45:37.397Z,8.31
2022-11-14T05:46:37.323Z,8.19
2022-11-14T05:47:37.285Z,8.20
2022-11-14T05:48:37.209Z,8.30
2022-11-14T05:49:37.157Z,8.15
2022-11-14T05:50:37.098Z,8.26
2022-11-14T05:51:37.046Z,8.24
2022-11-14T05:52:37.005Z,8.23
2022-11-14T05:53:36.928Z,8.20
2022-11-14T05:54:36.883Z,8.18
2022-11-14T05:55:36.816Z,8.19
2022-11-14T05:56:36.765Z,8.24
2022-11-14T05:57:36.707Z,8.20
2022-11-14T05:58:36.659Z,8.20
2022-11-14T05:59:36.589Z,8.24
2022-11-14T06:00:44.291Z,8.18
2022-11-14T06:01:36.554Z,8.18
2022-11-14T06:02:36.432Z,8.16
2022-11-14T06:03:36.362Z,8.18
2022-11-14T06:04:36.307Z,8.15
2022-11-14T06:05:36.251Z,8.18
2022-11-14T06:06:36.193Z,8.16
2022-11-14T06:07:36.204Z,8.08
2022-11-14T06:08:36.739Z,8.06
2022-11-14T06:09:36.028Z,8.08
2022-11-14T06:10:35.987Z,7.98
2022-11-14T06:11:35.910Z,8.09
2022-11-14T06:12:35.871Z,8.03
2022-11-14T06:13:35.797Z,8.03
2022-11-14T06:14:35.752Z,8.03
2022-11-14T06:15:35.691Z,8.03
2022-11-14T06:16:35.629Z,8.03
2022-11-14T06:17:35.576Z,8.06
2022-11-14T06:18:35.514Z,8.01
2022-11-14T06:19:35.479Z,7.97
2022-11-14T06:20:44.794Z,7.98
2022-11-14T06:21:35.355Z,8.01
2022-11-14T06:22:35.337Z,8.03
2022-11-14T06:23:35.252Z,8.01
2022-11-14T06:24:35.209Z,7.98
2022-11-14T06:25:35.145Z,8.01
2022-11-14T06:26:35.113Z,7.97
2022-11-14T06:27:35.048Z,7.93
2022-11-14T06:28:34.986Z,7.94
2022-11-14T06:29:35.739Z,7.98
2022-11-14T06:30:34.876Z,7.90
2022-11-14T06:31:34.824Z,7.97
2022-11-14T06:32:34.767Z,7.91
2022-11-14T06:33:34.718Z,7.75
2022-11-14T06:34:34.637Z,7.77
2022-11-14T06:35:34.576Z,7.77
2022-11-14T06:36:34.539Z,7.80
2022-11-14T06:37:34.466Z,7.80
2022-11-14T06:38:34.408Z,7.79
2022-11-14T06:39:34.367Z,7.83
2022-11-14T06:40:34.284Z,7.76
2022-11-14T06:41:34.257Z,7.75
2022-11-14T06:42:34.187Z,7.77
2022-11-14T06:43:34.102Z,7.79
2022-11-14T06:44:34.094Z,7.83
2022-11-14T06:45:34.015Z,7.82
2022-11-14T06:46:33.983Z,7.77
2022-11-14T06:47:33.939Z,7.82
2022-11-14T06:48:33.857Z,7.70
2022-11-14T06:49:37.915Z,7.76
2022-11-14T06:50:33.713Z,7.82
2022-11-14T06:51:33.696Z,7.75
2022-11-14T06:52:33.661Z,7.70
2022-11-14T06:53:33.571Z,7.66
2022-11-14T06:54:33.525Z,7.63
2022-11-14T06:55:33.458Z,7.57
2022-11-14T06:56:33.377Z,7.61
2022-11-14T06:57:33.347Z,7.63
2022-11-14T06:58:33.555Z,7.56
2022-11-14T06:59:33.211Z,7.51
2022-11-14T07:00:33.180Z,7.51
2022-11-14T07:01:33.120Z,7.50
2022-11-14T07:02:33.173Z,7.43
2022-11-14T07:03:33.074Z,7.45
2022-11-14T07:04:32.936Z,7.51
2022-11-14T07:05:32.938Z,7.35
2022-11-14T07:06:32.816Z,7.29
2022-11-14T07:07:32.815Z,7.35
2022-11-14T07:08:33.016Z,7.31
2022-11-14T07:09:32.657Z,7.35
2022-11-14T07:10:32.618Z,7.38
2022-11-14T07:11:32.547Z,7.28
2022-11-14T07:12:32.486Z,7.28
2022-11-14T07:13:32.421Z,7.24
2022-11-14T07:14:32.379Z,7.25
2022-11-14T07:15:32.295Z,7.20
2022-11-14T07:16:32.279Z,7.29
2022-11-14T07:17:32.164Z,7.14
2022-11-14T07:18:32.509Z,7.25
2022-11-14T07:19:32.098Z,7.21
2022-11-14T07:20:32.015Z,7.23
2022-11-14T07:21:31.978Z,7.25
2022-11-14T07:22:31.893Z,7.23
2022-11-14T07:23:31.832Z,7.18
2022-11-14T07:24:31.788Z,7.25
2022-11-14T07:25:31.756Z,7.21
2022-11-14T07:26:31.670Z,7.31
2022-11-14T07:27:31.634Z,7.58
2022-11-14T07:28:31.900Z,7.67
2022-11-14T07:29:31.508Z,7.61
2022-11-14T07:30:31.425Z,7.75
2022-11-14T07:31:31.402Z,7.97
2022-11-14T07:32:31.328Z,8.33
2022-11-14T07:33:31.259Z,8.74
2022-11-14T07:34:31.219Z,9.06
2022-11-14T07:35:31.157Z,9.08
2022-11-14T07:36:31.130Z,8.87
2022-11-14T07:37:31.044Z,8.91
2022-11-14T07:38:31.371Z,8.79
2022-11-14T07:39:30.936Z,8.44
2022-11-14T07:40:30.925Z,8.06
2022-11-14T07:41:30.810Z,7.75
2022-11-14T07:42:30.773Z,7.97
2022-11-14T07:43:30.745Z,8.42
2022-11-14T07:44:30.686Z,8.31
2022-11-14T07:45:30.609Z,8.87
2022-11-14T07:46:30.579Z,9.08
2022-11-14T07:47:30.488Z,9.43
2022-11-14T07:48:30.844Z,9.50
2022-11-14T07:49:30.422Z,9.36
2022-11-14T07:50:30.363Z,9.73
2022-11-14T07:51:30.310Z,9.59
2022-11-14T07:52:30.237Z,9.76
2022-11-14T07:53:30.174Z,9.82
2022-11-14T07:54:30.159Z,9.74
2022-11-14T07:55:30.097Z,9.48
2022-11-14T07:56:30.044Z,9.72
2022-11-14T07:57:29.975Z,9.72
2022-11-14T07:58:30.270Z,9.74
2022-11-14T07:59:29.900Z,10.20
2022-11-14T08:00:29.830Z,10.31
2022-11-14T08:01:29.821Z,10.26
2022-11-14T08:02:29.705Z,10.67
2022-11-14T08:03:29.659Z,10.68
2022-11-14T08:04:29.648Z,10.84
2022-11-14T08:05:29.556Z,11.43
2022-11-14T08:06:29.505Z,11.33
2022-11-14T08:07:29.493Z,11.44
2022-11-14T08:08:29.717Z,11.57
2022-11-14T08:09:29.366Z,11.59
2022-11-14T08:10:33.405Z,11.44
2022-11-14T08:11:35.238Z,11.10
2022-11-14T08:12:29.232Z,11.41
2022-11-14T08:13:33.644Z,11.35
2022-11-14T08:14:29.128Z,11.19
2022-11-14T08:15:29.048Z,11.19
2022-11-14T08:16:29.022Z,11.59
2022-11-14T08:17:28.976Z,11.91
2022-11-14T08:18:29.272Z,12.22
2022-11-14T08:19:28.952Z,12.04
2022-11-14T08:20:28.813Z,11.72
2022-11-14T08:21:28.777Z,11.62
2022-11-14T08:22:28.736Z,12.13
2022-11-14T08:23:28.666Z,12.20
2022-11-14T08:24:28.671Z,12.03
2022-11-14T08:25:28.580Z,11.95
2022-11-14T08:26:33.946Z,11.95
2022-11-14T08:27:28.489Z,12.10
2022-11-14T08:28:28.734Z,12.03
2022-11-14T08:29:28.419Z,11.80
2022-11-14T08:30:28.351Z,12.02
2022-11-14T08:31:28.299Z,12.07
2022-11-14T08:32:28.293Z,12.27
2022-11-14T08:33:28.211Z,12.40
2022-11-14T08:34:28.155Z,12.57
2022-11-14T08:35:28.142Z,13.05
2022-11-14T08:36:28.068Z,13.35
2022-11-14T08:37:28.006Z,13.77
2022-11-14T08:38:28.423Z,14.32
2022-11-14T08:39:27.929Z,14.22
2022-11-14T08:40:27.880Z,14.26
2022-11-14T08:41:27.863Z,14.11
2022-11-14T08:42:27.799Z,14.43
2022-11-14T08:43:27.779Z,14.29
2022-11-14T08:44:27.710Z,14.30
2022-11-14T08:45:27.646Z,14.44
2022-11-14T08:46:27.604Z,13.77
2022-11-14T08:47:27.551Z,13.83
2022-11-14T08:48:27.881Z,13.95
2022-11-14T08:49:27.461Z,13.50
2022-11-14T08:50:27.455Z,13.44
2022-11-14T08:51:27.372Z,13.27
2022-11-14T08:52:27.362Z,13.20
2022-11-14T08:53:27.327Z,13.04
2022-11-14T08:54:27.259Z,12.79
2022-11-14T08:55:27.232Z,12.93
2022-11-14T08:56:27.180Z,12.76
2022-11-14T08:57:27.170Z,12.90
2022-11-14T08:58:27.326Z,12.90
2022-11-14T08:59:27.050Z,13.16
2022-11-14T09:00:26.982Z,13.19
2022-11-14T09:01:26.959Z,12.93
2022-11-14T09:02:26.916Z,12.93
2022-11-14T09:03:26.892Z,13.31
2022-11-14T09:04:26.857Z,13.83
2022-11-14T09:05:26.762Z,13.96
2022-11-14T09:06:26.706Z,14.23
2022-11-14T09:07:26.657Z,14.28
2022-11-14T09:08:26.860Z,14.70
2022-11-14T09:09:26.588Z,15.18
2022-11-14T09:10:26.527Z,15.55
2022-11-14T09:11:26.496Z,15.92
2022-11-14T09:12:26.467Z,16.08
2022-11-14T09:13:26.484Z,16.36
2022-11-14T09:14:26.341Z,16.74
2022-11-14T09:15:26.306Z,16.47
2022-11-14T09:16:26.281Z,16.86
2022-11-14T09:17:26.228Z,17.30
2022-11-14T09:18:26.217Z,16.90
2022-11-14T09:19:26.161Z,16.99
2022-11-14T09:20:31.684Z,17.27
2022-11-14T09:21:26.037Z,17.24
2022-11-14T09:22:25.993Z,17.48
2022-11-14T09:23:25.957Z,17.57
2022-11-14T09:24:25.944Z,17.89
2022-11-14T09:25:25.869Z,17.92
2022-11-14T09:26:25.846Z,18.01
2022-11-14T09:27:25.768Z,17.63
2022-11-14T09:28:25.791Z,17.29
2022-11-14T09:29:25.706Z,16.78
2022-11-14T09:30:25.665Z,17.26
2022-11-14T09:31:25.637Z,17.67
2022-11-14T09:32:25.567Z,17.78
2022-11-14T09:33:25.569Z,18.18
2022-11-14T09:34:25.522Z,17.85
2022-11-14T09:35:25.475Z,16.87
2022-11-14T09:36:25.433Z,17.01
2022-11-14T09:37:25.361Z,16.86
2022-11-14T09:38:25.338Z,16.50
2022-11-14T09:39:25.271Z,15.95
2022-11-14T09:40:25.239Z,15.94
2022-11-14T09:41:25.176Z,16.36
2022-11-14T09:42:25.143Z,17.02
2022-11-14T09:43:25.147Z,17.39
2022-11-14T09:44:25.060Z,17.46
2022-11-14T09:45:25.025Z,17.15
2022-11-14T09:46:24.972Z,16.69
2022-11-14T09:47:24.952Z,15.94
2022-11-14T09:48:24.935Z,16.23
2022-11-14T09:49:24.851Z,16.04
2022-11-14T09:50:26.148Z,16.12
2022-11-14T09:51:24.744Z,16.33
2022-11-14T09:52:24.736Z,16.87
2022-11-14T09:53:24.669Z,17.34
2022-11-14T09:54:24.666Z,17.60
2022-11-14T09:55:24.597Z,18.01
2022-11-14T09:56:24.543Z,18.58
2022-11-14T09:57:24.512Z,18.53
2022-11-14T09:58:24.453Z,18.33
2022-11-14T09:59:24.435Z,18.07
2022-11-14T10:00:24.354Z,18.44
2022-11-14T10:01:24.346Z,18.73
2022-11-14T10:02:24.299Z,19.04
2022-11-14T10:03:24.272Z,19.02
2022-11-14T10:04:24.217Z,18.58
2022-11-14T10:05:24.161Z,18.45
2022-11-14T10:06:24.123Z,18.60
2022-11-14T10:07:24.204Z,18.38
2022-11-14T10:08:24.016Z,18.28
2022-11-14T10:09:28.838Z,18.65
2022-11-14T10:10:23.955Z,19.18
2022-11-14T10:11:23.874Z,19.51
2022-11-14T10:12:23.829Z,20.00
2022-11-14T10:13:23.819Z,20.04
2022-11-14T10:14:23.755Z,20.16
2022-11-14T10:15:23.753Z,20.34
2022-11-14T10:16:23.696Z,20.39
2022-11-14T10:17:23.643Z,20.59
2022-11-14T10:18:23.593Z,20.22
2022-11-14T10:19:23.523Z,20.59
2022-11-14T10:20:23.519Z,20.40
2022-11-14T10:21:23.461Z,20.36
2022-11-14T10:22:23.412Z,20.22
2022-11-14T10:23:23.376Z,20.37
2022-11-14T10:24:23.333Z,20.21
2022-11-14T10:25:23.288Z,19.91
2022-11-14T10:26:23.263Z,19.77
2022-11-14T10:27:23.193Z,19.85
2022-11-14T10:28:23.166Z,19.95
2022-11-14T10:29:23.110Z,19.92
2022-11-14T10:30:23.096Z,20.04
2022-11-14T10:31:23.021Z,20.04
2022-11-14T10:32:22.995Z,20.00
2022-11-14T10:33:22.961Z,20.43
2022-11-14T10:34:22.870Z,20.90
2022-11-14T10:35:22.842Z,20.58
2022-11-14T10:36:22.821Z,20.85
2022-11-14T10:37:22.771Z,20.72
2022-11-14T10:38:22.709Z,20.48
2022-11-14T10:39:22.678Z,20.40
2022-11-14T10:40:22.658Z,20.40
2022-11-14T10:41:50.060Z,20.93
2022-11-14T10:42:22.576Z,21.09
2022-11-14T10:43:22.488Z,21.18
2022-11-14T10:44:22.452Z,21.33
2022-11-14T10:45:22.394Z,21.58
2022-11-14T10:46:22.388Z,21.83
2022-11-14T10:47:22.288Z,21.98
2022-11-14T10:48:22.256Z,21.91
2022-11-14T10:49:22.202Z,21.88
2022-11-14T10:50:22.167Z,21.72
2022-11-14T10:51:22.156Z,21.73
2022-11-14T10:52:22.131Z,21.98
2022-11-14T10:53:22.028Z,22.22
2022-11-14T10:54:21.987Z,22.41
2022-11-14T10:55:32.044Z,22.33
2022-11-14T10:56:21.902Z,21.75
2022-11-14T10:57:21.879Z,21.46
2022-11-14T10:58:21.837Z,21.60
2022-11-14T10:59:21.742Z,21.55
2022-11-14T11:00:21.716Z,21.46
2022-11-14T11:01:21.731Z,20.75
2022-11-14T11:02:21.683Z,20.55
2022-11-14T11:03:21.597Z,20.44
2022-11-14T11:04:21.677Z,20.66
2022-11-14T11:05:21.522Z,20.77
2022-11-14T11:06:21.424Z,20.52
2022-11-14T11:07:21.486Z,20.40
2022-11-14T11:08:42.157Z,20.10
2022-11-14T11:09:21.337Z,19.58
2022-11-14T11:10:21.279Z,19.00
2022-11-14T11:11:21.205Z,18.68
2022-11-14T11:12:21.204Z,17.94
2022-11-14T11:13:21.149Z,17.52
2022-11-14T11:14:21.103Z,17.38
2022-11-14T11:15:21.047Z,17.33
2022-11-14T11:16:21.026Z,17.27
2022-11-14T11:17:20.957Z,16.87
2022-11-14T11:18:20.905Z,16.90
2022-11-14T11:19:20.858Z,16.66
2022-11-14T11:20:20.799Z,16.32
2022-11-14T11:21:20.765Z,15.90
2022-11-14T11:22:20.719Z,15.52
2022-11-14T11:23:20.663Z,15.83
2022-11-14T11:24:20.595Z,16.38
2022-11-14T11:25:20.547Z,16.31
2022-11-14T11:26:20.488Z,16.09
2022-11-14T11:27:20.479Z,16.01
2022-11-14T11:28:20.434Z,15.57
2022-11-14T11:29:20.372Z,15.27
2022-11-14T11:30:20.326Z,15.19
2022-11-14T11:31:20.270Z,14.96
2022-11-14T11:32:20.238Z,15.22
2022-11-14T11:33:20.200Z,15.17
2022-11-14T11:34:20.154Z,15.25
2022-11-14T11:35:20.096Z,14.73
2022-11-14T11:36:20.017Z,14.85
2022-11-14T11:37:20.029Z,14.99
2022-11-14T11:38:19.948Z,15.52
2022-11-14T11:39:19.860Z,15.33
2022-11-14T11:40:19.851Z,14.86
2022-11-14T11:41:33.327Z,14.72
2022-11-14T11:42:19.750Z,14.79
2022-11-14T11:44:19.615Z,15.33
2022-11-14T11:45:19.605Z,14.91
2022-11-14T11:46:19.525Z,14.86
2022-11-14T11:47:19.511Z,14.85
2022-11-14T11:48:19.439Z,15.11
2022-11-14T11:49:19.376Z,14.89
2022-11-14T11:50:19.373Z,14.33
2022-11-14T11:51:19.325Z,14.20
2022-11-14T11:52:19.261Z,13.79
2022-11-14T11:53:19.220Z,13.52
2022-11-14T11:54:19.144Z,13.54
2022-11-14T11:55:19.095Z,13.35
2022-11-14T11:56:19.018Z,13.44
2022-11-14T11:57:21.866Z,13.56
2022-11-14T11:58:18.971Z,13.54
2022-11-14T11:59:18.895Z,13.56
2022-11-14T12:00:18.875Z,13.41
2022-11-14T12:01:18.771Z,13.33
2022-11-14T12:02:18.815Z,13.27
2022-11-14T12:03:21.837Z,13.31
2022-11-14T12:04:18.623Z,13.86
2022-11-14T12:05:18.626Z,13.79
2022-11-14T12:06:18.566Z,13.72
2022-11-14T12:07:18.528Z,13.15
2022-11-14T12:08:21.356Z,13.12
2022-11-14T12:09:18.396Z,12.91
2022-11-14T12:10:18.339Z,12.94
2022-11-14T12:11:18.300Z,12.76
2022-11-14T12:12:18.235Z,13.01
2022-11-14T12:13:18.186Z,13.44
2022-11-14T12:14:18.103Z,13.50
2022-11-14T12:15:18.055Z,13.37
2022-11-14T12:16:18.047Z,13.46
2022-11-14T12:17:18.006Z,13.31
2022-11-14T12:18:17.959Z,13.04
2022-11-14T12:19:17.871Z,13.16
2022-11-14T12:20:17.860Z,13.33
2022-11-14T12:21:17.793Z,13.25
2022-11-14T12:22:17.720Z,13.30
2022-11-14T12:23:17.747Z,13.19
2022-11-14T12:24:17.646Z,13.16
2022-11-14T12:25:17.561Z,13.18
2022-11-14T12:26:17.526Z,13.27
2022-11-14T12:27:17.520Z,13.15
2022-11-14T12:28:17.414Z,13.25
2022-11-14T12:29:22.464Z,13.44
2022-11-14T12:30:17.294Z,13.38
2022-11-14T12:31:17.292Z,13.42
2022-11-14T12:32:17.201Z,13.18
2022-11-14T12:33:17.161Z,13.27
2022-11-14T12:34:17.166Z,13.04
2022-11-14T12:35:17.154Z,12.97
2022-11-14T12:36:25.464Z,12.83
2022-11-14T12:37:16.961Z,12.64
2022-11-14T12:38:16.897Z,12.60
2022-11-14T12:39:16.873Z,12.79
2022-11-14T12:40:16.797Z,12.78
2022-11-14T12:41:16.738Z,12.82
2022-11-14T12:42:16.695Z,12.98
2022-11-14T12:43:16.648Z,12.80
2022-11-14T12:44:16.648Z,12.73
2022-11-14T12:45:16.530Z,12.83
2022-11-14T12:46:16.473Z,12.80
2022-11-14T12:47:16.425Z,12.58
2022-11-14T12:48:16.396Z,12.61
2022-11-14T12:49:16.312Z,12.72
2022-11-14T12:50:16.256Z,12.68
2022-11-14T12:51:16.247Z,12.64
2022-11-14T12:52:16.148Z,12.46
2022-11-14T12:53:16.179Z,12.54
2022-11-14T12:54:16.053Z,12.64
2022-11-14T12:55:16.005Z,12.60
2022-11-14T12:56:15.961Z,12.65
2022-11-14T12:57:15.916Z,12.75
2022-11-14T12:58:15.881Z,12.80
2022-11-14T12:59:15.828Z,12.79
2022-11-14T13:00:15.737Z,12.61
2022-11-14T13:01:15.793Z,12.64
2022-11-14T13:02:20.968Z,12.60
2022-11-14T13:03:15.624Z,12.62
2022-11-14T13:04:15.576Z,12.43
2022-11-14T13:05:15.476Z,12.46
2022-11-14T13:06:15.436Z,12.43
2022-11-14T13:07:15.467Z,12.57
2022-11-14T13:08:15.359Z,12.65
2022-11-14T13:09:15.274Z,12.83